Time;durP1;ratioP1;P1;durP2;ratioP2;P2;SDS_P1;SDS_P2;PMS_P1;PMS_P2;Temp;Humidity;BMP_temperature;BMP_pressure;BME280_temperature;BME280_humidity;BME280_pressure;Samples;Min_cycle;Max_cycle;Signal;HPM_P1;HPM_P2
2021/05/22 00:02:06;;;;;;;5.05;1.52;;;17.90;59.20;;;;;;5037359;28;20042;-68
2021/05/22 00:04:31;;;;;;;6.75;1.90;;;17.70;60.30;;;;;;5040128;28;20091;-68
2021/05/22 00:06:57;;;;;;;4.13;1.50;;;17.70;61.10;;;;;;5041453;28;20052;-69
2021/05/22 00:09:23;;;;;;;3.72;1.48;;;17.70;61.70;;;;;;5033213;28;20048;-68
2021/05/22 00:11:49;;;;;;;3.20;1.48;;;17.60;61.70;;;;;;5041836;28;20042;-69
2021/05/22 00:14:14;;;;;;;3.88;1.70;;;17.50;61.70;;;;;;5052013;28;20478;-68
2021/05/22 00:16:40;;;;;;;4.20;1.85;;;17.60;62.00;;;;;;5033417;28;20084;-68
2021/05/22 00:19:06;;;;;;;5.30;1.33;;;17.50;62.60;;;;;;5038165;28;20033;-68
2021/05/22 00:21:31;;;;;;;4.32;1.10;;;17.40;61.80;;;;;;5041961;28;20472;-68
2021/05/22 00:23:57;;;;;;;3.38;1.08;;;17.40;60.80;;;;;;5048055;28;20045;-68
2021/05/22 00:26:23;;;;;;;3.42;1.15;;;17.30;61.90;;;;;;5040566;28;20132;-68
2021/05/22 00:28:48;;;;;;;5.22;2.00;;;17.40;61.30;;;;;;5043557;28;20041;-68
2021/05/22 00:31:14;;;;;;;4.50;1.25;;;17.30;60.60;;;;;;5031247;28;20056;-69
2021/05/22 00:33:40;;;;;;;2.83;1.65;;;17.10;61.00;;;;;;5041876;28;20086;-69
2021/05/22 00:36:06;;;;;;;3.55;1.38;;;17.30;61.40;;;;;;5040204;28;20037;-69
2021/05/22 00:38:31;;;;;;;2.28;1.20;;;17.40;61.70;;;;;;5035257;28;20075;-68
2021/05/22 00:41:00;;;;;;;3.72;1.23;;;17.20;61.30;;;;;;5037134;28;20095;-68
2021/05/22 00:43:25;;;;;;;5.93;1.30;;;17.20;62.00;;;;;;5035724;28;20040;-67
2021/05/22 00:45:54;;;;;;;3.75;1.27;;;17.20;61.80;;;;;;5032469;28;20040;-64
2021/05/22 00:48:20;;;;;;;3.83;1.40;;;17.20;60.50;;;;;;5040248;28;20047;-69
2021/05/22 00:50:46;;;;;;;3.33;1.15;;;17.30;61.20;;;;;;5031810;28;20033;-69
2021/05/22 00:53:12;;;;;;;4.28;1.90;;;17.20;60.50;;;;;;5041076;28;20551;-69
2021/05/22 00:55:38;;;;;;;4.75;1.80;;;17.20;61.60;;;;;;5036920;28;20037;-69
2021/05/22 00:58:05;;;;;;;5.90;1.40;;;17.30;61.60;;;;;;5040375;28;20052;-69
2021/05/22 01:00:39;;;;;;;3.78;1.67;;;17.20;60.90;;;;;;5038826;28;20029;-69
2021/05/22 01:03:07;;;;;;;;;;;17.30;61.80;;;;;;5047619;28;20456;-69
2021/05/22 01:05:32;;;;;;;2.78;1.42;;;17.30;63.40;;;;;;5034335;28;22468;-69
2021/05/22 01:07:58;;;;;;;3.58;1.40;;;17.20;61.20;;;;;;5028478;28;20155;-68
2021/05/22 01:10:24;;;;;;;4.47;1.73;;;17.20;60.70;;;;;;5051674;28;20052;-68
2021/05/22 01:12:54;;;;;;;6.38;1.50;;;17.10;60.40;;;;;;5035025;28;20037;-69
2021/05/22 01:15:24;;;;;;;2.95;1.52;;;17.30;60.00;;;;;;5036255;28;20037;-69
2021/05/22 01:17:51;;;;;;;3.85;1.90;;;17.20;60.00;;;;;;5030619;28;20487;-69
2021/05/22 01:20:38;;;;;;;2.92;1.42;;;17.20;60.30;;;;;;5036003;28;20037;-69
2021/05/22 01:23:50;;;;;;;7.50;1.90;;;17.20;60.90;;;;;;5017103;28;20065;-69
2021/05/22 01:26:16;;;;;;;5.45;2.22;;;17.20;61.30;;;;;;5012869;28;20088;-69
2021/05/22 01:28:44;;;;;;;5.15;1.85;;;17.30;60.60;;;;;;5040256;28;20041;-69
2021/05/22 01:31:10;;;;;;;2.92;1.95;;;17.30;61.00;;;;;;5043035;28;20083;-69
2021/05/22 01:33:36;;;;;;;5.70;2.25;;;17.30;60.50;;;;;;5052142;28;20033;-69
2021/05/22 01:36:03;;;;;;;5.95;3.00;;;17.10;60.30;;;;;;5032539;28;20049;-69
2021/05/22 01:38:28;;;;;;;4.38;2.15;;;17.10;60.80;;;;;;5033370;28;20457;-69
2021/05/22 01:44:17;;;;;;;4.78;2.28;;;17.20;62.90;;;;;;5010909;28;20047;-69
2021/05/22 01:46:43;;;;;;;4.25;2.42;;;17.20;60.80;;;;;;5035650;28;20439;-69
2021/05/22 01:49:11;;;;;;;3.60;2.55;;;17.20;60.70;;;;;;5035165;28;20033;-68
2021/05/22 01:51:38;;;;;;;3.85;2.42;;;17.20;61.60;;;;;;5036117;28;20060;-69
2021/05/22 01:54:05;;;;;;;8.60;2.60;;;17.10;62.20;;;;;;5029845;28;20454;-69
2021/05/22 01:56:31;;;;;;;6.57;2.85;;;17.00;62.10;;;;;;5040240;28;20033;-69
2021/05/22 01:58:57;;;;;;;4.22;2.38;;;17.10;61.60;;;;;;5036865;28;20044;-69
2021/05/22 02:01:27;;;;;;;8.32;2.80;;;17.20;61.60;;;;;;5057894;28;20030;-68
2021/05/22 02:03:56;;;;;;;2.97;2.08;;;17.20;61.70;;;;;;5035618;28;20464;-68
2021/05/22 02:06:27;;;;;;;2.75;2.17;;;17.20;61.10;;;;;;5033430;28;20037;-66
2021/05/22 02:08:56;;;;;;;8.30;2.72;;;17.10;61.60;;;;;;5033276;28;20406;-68
2021/05/22 02:11:24;;;;;;;2.08;1.83;;;17.20;61.60;;;;;;5035017;28;20037;-68
2021/05/22 02:13:51;;;;;;;7.47;2.22;;;17.10;61.70;;;;;;5032548;28;20525;-68
2021/05/22 02:16:28;;;;;;;5.15;2.38;;;17.10;61.90;;;;;;5036807;28;20053;-69
2021/05/22 02:18:55;;;;;;;3.97;2.38;;;17.10;61.70;;;;;;5045983;28;20402;-69
2021/05/22 02:21:28;;;;;;;4.82;2.33;;;17.10;62.10;;;;;;5039054;28;20037;-69
2021/05/22 02:23:54;;;;;;;6.78;2.13;;;17.00;62.10;;;;;;5030425;28;20029;-69
2021/05/22 02:26:22;;;;;;;4.90;2.80;;;17.10;62.70;;;;;;5035718;28;20052;-69
2021/05/22 02:28:48;;;;;;;3.25;2.30;;;17.20;61.70;;;;;;5034783;28;22438;-70
2021/05/22 02:31:17;;;;;;;6.97;2.63;;;17.20;60.90;;;;;;5037911;28;20091;-69
2021/05/22 02:33:44;;;;;;;5.68;2.55;;;17.20;60.60;;;;;;5036621;28;20098;-70
2021/05/22 02:36:12;;;;;;;3.95;2.53;;;17.20;61.20;;;;;;5038342;28;20036;-69
2021/05/22 02:38:50;;;;;;;4.43;2.13;;;17.20;61.60;;;;;;5031103;28;20041;-69
2021/05/22 02:41:17;;;;;;;3.90;2.30;;;17.30;61.40;;;;;;5051250;28;20550;-69
2021/05/22 02:43:47;;;;;;;6.18;2.85;;;17.20;60.60;;;;;;5042796;28;20033;-69
2021/05/22 02:46:15;;;;;;;3.42;2.50;;;17.20;61.60;;;;;;5037023;28;20390;-69
2021/05/22 02:48:43;;;;;;;3.85;2.60;;;17.20;60.90;;;;;;5042526;28;20045;-70
2021/05/22 02:51:11;;;;;;;4.75;2.85;;;17.20;61.30;;;;;;5036928;28;20047;-69
2021/05/22 02:53:37;;;;;;;7.47;2.88;;;17.20;62.00;;;;;;5039248;28;20053;-69
2021/05/22 02:56:05;;;;;;;5.35;3.13;;;17.20;61.10;;;;;;5034941;28;20100;-69
2021/05/22 02:58:36;;;;;;;3.83;2.35;;;17.20;61.30;;;;;;5041280;28;20112;-69
2021/05/22 03:01:03;;;;;;;3.72;2.30;;;17.20;61.10;;;;;;5036335;28;20037;-69
2021/05/22 03:03:30;;;;;;;8.20;2.60;;;17.20;60.30;;;;;;5040701;28;20033;-69
2021/05/22 03:06:01;;;;;;;4.72;2.40;;;17.20;60.40;;;;;;5041647;28;20050;-69
2021/05/22 03:08:27;;;;;;;3.28;2.13;;;17.20;60.70;;;;;;5037107;28;20045;-70
2021/05/22 03:10:57;;;;;;;4.28;3.00;;;17.20;60.20;;;;;;5036616;28;20045;-69
2021/05/22 03:13:23;;;;;;;4.72;2.58;;;17.20;60.60;;;;;;5037276;28;20045;-67
2021/05/22 03:15:49;;;;;;;5.97;2.53;;;17.20;60.90;;;;;;5038420;28;20038;-69
2021/05/22 03:18:14;;;;;;;3.70;2.22;;;17.20;60.90;;;;;;5044506;28;20395;-69
2021/05/22 03:20:40;;;;;;;5.00;2.47;;;17.10;60.80;;;;;;5043508;28;20037;-70
2021/05/22 03:23:06;;;;;;;5.43;2.45;;;17.00;62.90;;;;;;5046205;28;20082;-69
2021/05/22 03:25:32;;;;;;;6.72;2.40;;;16.70;65.40;;;;;;5042481;28;20583;-69
2021/05/22 03:27:58;;;;;;;5.50;1.90;;;16.60;65.70;;;;;;5035618;28;20037;-68
2021/05/22 03:30:24;;;;;;;4.65;3.00;;;16.60;66.70;;;;;;5037711;28;20037;-68
2021/05/22 03:32:50;;;;;;;4.28;2.53;;;16.50;87.70;;;;;;5049668;28;20485;-68
2021/05/22 03:35:16;;;;;;;4.28;2.45;;;16.40;72.70;;;;;;5040516;28;20038;-68
2021/05/22 03:37:42;;;;;;;4.57;2.60;;;16.30;76.30;;;;;;5037996;28;20051;-68
2021/05/22 03:40:08;;;;;;;4.38;2.28;;;16.20;72.90;;;;;;5052996;28;20140;-68
2021/05/22 03:42:34;;;;;;;6.88;2.80;;;16.20;74.80;;;;;;5049790;28;20395;-68
2021/05/22 03:45:00;;;;;;;4.40;2.05;;;16.10;73.90;;;;;;5036807;28;20038;-69
2021/05/22 03:47:26;;;;;;;4.18;2.40;;;16.10;74.30;;;;;;5061626;28;20041;-68
2021/05/22 03:49:51;;;;;;;4.93;2.38;;;15.90;74.80;;;;;;5045021;28;20029;-69
2021/05/22 03:52:17;;;;;;;6.28;2.40;;;15.90;76.60;;;;;;5039966;28;20124;-69
2021/05/22 03:54:45;;;;;;;4.22;1.90;;;15.90;75.00;;;;;;5047448;28;20045;-69
2021/05/22 03:57:13;;;;;;;2.33;1.90;;;15.90;75.30;;;;;;5039565;28;20048;-69
2021/05/22 03:59:38;;;;;;;5.57;2.00;;;16.00;76.20;;;;;;5042394;28;20049;-69
2021/05/22 04:02:04;;;;;;;3.33;1.90;;;16.00;75.50;;;;;;5039913;28;20040;-69
2021/05/22 04:04:30;;;;;;;5.57;2.08;;;16.00;76.40;;;;;;5039456;28;20471;-69
2021/05/22 04:06:55;;;;;;;4.13;1.65;;;15.90;76.00;;;;;;5039171;28;20051;-69
2021/05/22 04:09:21;;;;;;;2.65;2.13;;;15.90;75.60;;;;;;5042925;28;20036;-68
2021/05/22 04:11:47;;;;;;;3.28;1.67;;;15.80;81.20;;;;;;5035995;28;20071;-68
2021/05/22 04:14:13;;;;;;;2.20;1.63;;;15.80;85.30;;;;;;5034166;28;20498;-68
2021/05/22 04:16:38;;;;;;;2.53;1.65;;;15.80;84.80;;;;;;5035310;28;20185;-69
2021/05/22 04:19:04;;;;;;;5.38;1.90;;;15.80;79.80;;;;;;5040533;28;20120;-69
2021/05/22 04:21:30;;;;;;;3.72;1.67;;;15.90;80.60;;;;;;5035274;28;20033;-68
2021/05/22 04:23:56;;;;;;;4.68;1.83;;;15.90;89.10;;;;;;5025131;28;20828;-69
2021/05/22 04:26:22;;;;;;;4.38;2.03;;;15.90;91.10;;;;;;5042609;28;20050;-66
2021/05/22 04:28:48;;;;;;;4.43;1.85;;;15.70;82.60;;;;;;5036615;28;20096;-69
2021/05/22 04:31:14;;;;;;;3.88;1.70;;;15.80;83.10;;;;;;5042222;28;20684;-69
2021/05/22 04:33:40;;;;;;;3.45;1.77;;;15.80;82.60;;;;;;5038303;28;20041;-69
2021/05/22 04:36:06;;;;;;;4.18;1.90;;;15.80;83.70;;;;;;5041566;28;20045;-69
2021/05/22 04:38:32;;;;;;;3.53;1.95;;;15.80;83.60;;;;;;5041141;28;20033;-70
2021/05/22 04:40:58;;;;;;;2.47;2.00;;;15.70;82.10;;;;;;5039867;28;20037;-68
2021/05/22 04:43:24;;;;;;;3.40;1.90;;;15.80;83.50;;;;;;5055217;28;20551;-67
2021/05/22 04:45:50;;;;;;;2.38;1.80;;;15.70;81.20;;;;;;5032933;28;20060;-67
2021/05/22 04:48:15;;;;;;;3.72;1.30;;;15.70;80.90;;;;;;5044138;28;20479;-69
2021/05/22 04:50:41;;;;;;;4.10;1.70;;;15.70;82.40;;;;;;5050002;28;20052;-68
2021/05/22 04:53:07;;;;;;;3.35;1.35;;;15.70;83.10;;;;;;5041464;28;20030;-69
2021/05/22 04:55:33;;;;;;;4.07;1.30;;;15.80;81.80;;;;;;5030292;28;20055;-69
2021/05/22 04:57:58;;;;;;;3.80;1.58;;;15.80;81.60;;;;;;5031549;28;20037;-70
2021/05/22 05:00:24;;;;;;;4.18;1.48;;;15.60;78.60;;;;;;5038976;28;20098;-69
2021/05/22 05:02:51;;;;;;;4.40;1.35;;;15.50;78.80;;;;;;5038691;28;20048;-69
2021/05/22 05:05:18;;;;;;;2.33;1.35;;;15.70;79.60;;;;;;5036844;28;20038;-69
2021/05/22 05:07:44;;;;;;;2.83;1.48;;;15.70;79.10;;;;;;5036519;28;20076;-70
2021/05/22 05:10:11;;;;;;;3.95;1.38;;;15.80;79.70;;;;;;5037107;28;20061;-69
2021/05/22 05:12:37;;;;;;;3.15;1.42;;;15.90;79.80;;;;;;5039593;28;20041;-69
2021/05/22 05:15:07;;;;;;;4.40;1.20;;;15.90;80.70;;;;;;5033029;28;20037;-69
2021/05/22 05:17:33;;;;;;;3.35;1.60;;;15.70;80.40;;;;;;5039576;28;20487;-69
2021/05/22 05:19:59;;;;;;;1.95;1.25;;;15.70;79.50;;;;;;5040914;28;20075;-69
2021/05/22 05:22:26;;;;;;;3.30;1.27;;;15.70;78.30;;;;;;5037715;28;20037;-69
2021/05/22 05:24:55;;;;;;;4.43;1.55;;;15.70;78.90;;;;;;5035031;28;20048;-64
2021/05/22 05:27:22;;;;;;;4.20;1.60;;;15.80;78.90;;;;;;5041683;28;20049;-70
2021/05/22 05:29:48;;;;;;;1.17;1.08;;;15.80;79.10;;;;;;5036980;28;20040;-69
2021/05/22 05:32:13;;;;;;;2.55;1.05;;;15.90;78.30;;;;;;5031791;28;20438;-69
2021/05/22 05:34:43;;;;;;;2.25;1.33;;;15.80;78.60;;;;;;5041488;28;20441;-69
2021/05/22 05:37:10;;;;;;;1.73;1.33;;;15.80;77.80;;;;;;5035145;28;20140;-69
2021/05/22 05:39:35;;;;;;;2.15;1.30;;;15.70;77.20;;;;;;5040031;28;20103;-69
2021/05/22 05:42:01;;;;;;;3.65;1.77;;;16.00;78.00;;;;;;5036762;28;20033;-69
2021/05/22 05:44:27;;;;;;;3.95;1.40;;;16.00;76.80;;;;;;5039805;28;20479;-68
2021/05/22 05:46:53;;;;;;;3.17;1.42;;;16.10;76.20;;;;;;5038953;28;20081;-68
2021/05/22 05:49:19;;;;;;;4.28;1.70;;;16.10;75.20;;;;;;5040655;28;20041;-69
2021/05/22 05:51:44;;;;;;;2.60;2.05;;;16.10;75.10;;;;;;5037551;28;20418;-69
2021/05/22 05:54:10;;;;;;;3.00;1.60;;;16.20;75.70;;;;;;5038001;28;20036;-69
2021/05/22 05:56:36;;;;;;;4.70;1.90;;;16.20;74.70;;;;;;5033789;28;20104;-69
2021/05/22 05:59:01;;;;;;;1.75;1.40;;;16.30;74.50;;;;;;5039695;28;20037;-69
2021/05/22 06:01:27;;;;;;;2.42;1.38;;;16.30;74.50;;;;;;5035208;28;20037;-69
2021/05/22 06:03:53;;;;;;;5.57;1.23;;;16.30;74.70;;;;;;5037149;28;20086;-68
2021/05/22 06:06:20;;;;;;;2.38;1.42;;;16.30;75.50;;;;;;5041702;28;20037;-69
2021/05/22 06:08:46;;;;;;;6.18;1.75;;;16.40;75.30;;;;;;5031979;28;20042;-69
2021/05/22 06:11:15;;;;;;;3.65;1.67;;;16.50;75.90;;;;;;5042150;28;20055;-69
2021/05/22 06:13:42;;;;;;;3.28;2.00;;;16.50;75.40;;;;;;5036774;28;20056;-69
2021/05/22 06:18:38;;;;;;;4.32;1.50;;;16.50;75.60;;;;;;5038695;28;20132;-69
2021/05/22 06:21:06;;;;;;;2.55;1.70;;;16.60;75.20;;;;;;5043321;28;20036;-69
2021/05/22 06:23:32;;;;;;;4.82;1.90;;;16.60;75.80;;;;;;5035385;28;20099;-68
2021/05/22 06:25:59;;;;;;;5.53;2.10;;;16.70;75.90;;;;;;5044876;28;20056;-69
2021/05/22 06:28:25;;;;;;;3.70;1.70;;;16.80;74.80;;;;;;5039716;28;20053;-69
2021/05/22 06:30:51;;;;;;;1.90;1.75;;;16.80;75.00;;;;;;5042920;28;20056;-69
2021/05/22 06:33:17;;;;;;;6.13;1.88;;;16.70;74.20;;;;;;5036519;28;20037;-69
2021/05/22 06:35:43;;;;;;;4.05;2.10;;;16.70;74.40;;;;;;5039438;28;20044;-69
2021/05/22 06:38:09;;;;;;;6.00;2.00;;;16.70;73.50;;;;;;5035966;28;20041;-69
2021/05/22 06:40:36;;;;;;;2.75;1.83;;;16.80;73.80;;;;;;5048411;28;20479;-69
2021/05/22 06:43:02;;;;;;;2.72;1.45;;;16.80;73.80;;;;;;5038523;28;20405;-68
2021/05/22 06:45:28;;;;;;;3.35;2.03;;;16.90;73.90;;;;;;5042598;28;20548;-69
2021/05/22 06:47:54;;;;;;;3.78;1.88;;;16.90;73.50;;;;;;5045132;28;20060;-68
2021/05/22 06:50:20;;;;;;;3.67;1.83;;;16.90;72.80;;;;;;5036397;28;20343;-69
2021/05/22 06:52:46;;;;;;;2.97;1.58;;;16.90;72.20;;;;;;5044505;28;20048;-69
2021/05/22 06:55:12;;;;;;;2.67;1.42;;;16.90;72.50;;;;;;5037494;28;20044;-68
2021/05/22 06:57:37;;;;;;;6.05;1.90;;;17.00;72.70;;;;;;5046329;28;20033;-68
2021/05/22 07:00:07;;;;;;;3.58;2.45;;;17.00;71.40;;;;;;5039470;28;20116;-69
2021/05/22 07:02:33;;;;;;;5.75;1.92;;;17.00;71.90;;;;;;5043282;28;20392;-68
2021/05/22 07:04:58;;;;;;;6.15;2.03;;;16.90;72.60;;;;;;5050810;28;20044;-69
2021/05/22 07:07:24;;;;;;;3.13;1.92;;;16.90;73.90;;;;;;5040145;28;20128;-69
2021/05/22 07:09:50;;;;;;;4.32;2.47;;;16.80;71.80;;;;;;5034201;28;20100;-69
2021/05/22 07:12:16;;;;;;;4.95;1.90;;;16.80;71.40;;;;;;5041030;28;20419;-69
2021/05/22 07:14:42;;;;;;;5.75;2.10;;;16.90;70.90;;;;;;5034842;28;20044;-69
2021/05/22 07:17:07;;;;;;;3.95;1.95;;;17.10;69.80;;;;;;5051588;28;20064;-69
2021/05/22 07:19:33;;;;;;;3.33;2.08;;;17.20;69.40;;;;;;5040570;28;20075;-69
2021/05/22 07:21:59;;;;;;;4.53;2.15;;;17.20;69.00;;;;;;5051479;28;20437;-69
2021/05/22 07:24:25;;;;;;;2.28;1.73;;;17.40;68.90;;;;;;5039242;28;20045;-68
2021/05/22 07:26:52;;;;;;;3.58;1.73;;;17.40;69.40;;;;;;5040301;28;20515;-69
2021/05/22 07:29:18;;;;;;;3.30;2.03;;;17.60;70.20;;;;;;5042047;28;20119;-69
2021/05/22 07:31:44;;;;;;;4.28;2.40;;;17.50;71.00;;;;;;5039404;28;20466;-69
2021/05/22 07:34:11;;;;;;;5.85;2.33;;;17.60;69.90;;;;;;5037917;28;20072;-69
2021/05/22 07:36:38;;;;;;;3.58;2.00;;;17.70;69.60;;;;;;5036836;28;20033;-69
2021/05/22 07:39:06;;;;;;;3.70;2.05;;;17.80;69.80;;;;;;5040032;28;20437;-69
2021/05/22 07:41:33;;;;;;;6.85;2.65;;;17.90;70.10;;;;;;5035051;28;20041;-69
2021/05/22 07:43:58;;;;;;;3.20;2.17;;;17.90;70.30;;;;;;5037493;28;20037;-69
2021/05/22 07:46:24;;;;;;;5.07;2.10;;;18.00;71.20;;;;;;5050271;28;20040;-69
2021/05/22 07:48:51;;;;;;;4.43;2.00;;;18.10;72.50;;;;;;5041134;28;20041;-69
2021/05/22 07:51:17;;;;;;;4.63;2.05;;;18.10;72.70;;;;;;5037902;28;21366;-69
2021/05/22 07:53:42;;;;;;;5.25;1.83;;;18.20;73.90;;;;;;5040796;28;20075;-69
2021/05/22 07:56:08;;;;;;;4.28;2.03;;;18.10;75.50;;;;;;5041631;28;20056;-70
2021/05/22 07:58:34;;;;;;;6.05;2.70;;;18.10;76.10;;;;;;5035105;28;20041;-69
2021/05/22 08:01:00;;;;;;;4.28;2.00;;;18.40;78.70;;;;;;5051163;28;20041;-69
2021/05/22 08:03:25;;;;;;;8.07;2.30;;;18.40;79.30;;;;;;5049484;28;20067;-69
2021/05/22 08:05:54;;;;;;;3.08;2.10;;;18.60;80.30;;;;;;5036412;28;20045;-69
2021/05/22 08:08:20;;;;;;;5.03;2.55;;;18.60;75.40;;;;;;5035455;28;20048;-69
2021/05/22 08:10:47;;;;;;;4.35;2.15;;;18.70;73.10;;;;;;5040345;28;20044;-69
2021/05/22 08:13:12;;;;;;;6.28;2.88;;;18.70;73.50;;;;;;5030868;28;20116;-69
2021/05/22 08:15:38;;;;;;;4.55;2.28;;;18.60;69.70;;;;;;5039779;28;20139;-69
2021/05/22 08:18:05;;;;;;;2.67;1.70;;;18.60;71.10;;;;;;5032625;28;20478;-69
2021/05/22 08:20:31;;;;;;;4.65;2.25;;;18.60;70.60;;;;;;5036523;28;20088;-69
2021/05/22 08:22:57;;;;;;;5.03;1.90;;;18.60;70.70;;;;;;5046445;28;20483;-69
2021/05/22 08:25:23;;;;;;;5.13;2.80;;;18.70;71.30;;;;;;5037958;28;20048;-69
2021/05/22 08:27:51;;;;;;;4.75;2.72;;;18.70;70.70;;;;;;5032794;28;20037;-69
2021/05/22 08:30:17;;;;;;;2.65;2.00;;;18.80;70.90;;;;;;5040700;28;20112;-69
2021/05/22 08:32:43;;;;;;;5.35;2.28;;;19.00;71.30;;;;;;5034380;28;20434;-69
2021/05/22 08:35:09;;;;;;;3.63;2.35;;;19.00;72.30;;;;;;5034610;28;20045;-69
2021/05/22 08:37:36;;;;;;;5.20;2.53;;;19.10;73.90;;;;;;5037306;28;20185;-69
2021/05/22 08:40:03;;;;;;;6.97;2.97;;;19.40;88.00;;;;;;5036491;28;20036;-68
2021/05/22 08:42:30;;;;;;;3.50;2.40;;;19.20;57.40;;;;;;5037133;28;20115;-68
2021/05/22 08:45:13;;;;;;;8.50;3.00;;;19.70;72.40;;;;;;5033283;28;20120;-68
2021/05/22 08:47:40;;;;;;;4.60;2.55;;;19.10;57.10;;;;;;5052111;28;20041;-68
2021/05/22 08:50:10;;;;;;;5.05;2.90;;;19.10;56.80;;;;;;5030826;28;20048;-68
2021/05/22 08:52:36;;;;;;;3.75;2.55;;;19.10;56.40;;;;;;5037285;28;20051;-69
2021/05/22 08:55:04;;;;;;;7.45;3.03;;;19.20;56.00;;;;;;5035510;28;20033;-68
2021/05/22 08:57:30;;;;;;;3.50;2.28;;;19.30;55.00;;;;;;5035479;28;20561;-68
2021/05/22 08:59:55;;;;;;;6.10;2.60;;;19.30;55.00;;;;;;5031508;28;20053;-68
2021/05/22 09:02:25;;;;;;;3.55;2.22;;;19.30;55.60;;;;;;5036691;28;20029;-68
2021/05/22 09:05:09;;;;;;;5.25;2.58;;;19.50;53.80;;;;;;5035351;28;20057;-69
2021/05/22 09:07:38;;;;;;;4.88;2.70;;;19.50;53.70;;;;;;4999315;28;20037;-68
2021/05/22 09:10:11;;;;;;;5.63;2.60;;;19.50;55.60;;;;;;5050957;28;20048;-68
2021/05/22 09:12:39;;;;;;;5.88;2.50;;;19.70;56.30;;;;;;5037529;28;20098;-68
2021/05/22 09:15:10;;;;;;;5.28;2.35;;;19.80;54.40;;;;;;5032620;28;20064;-68
2021/05/22 09:17:38;;;;;;;7.35;3.42;;;19.80;54.20;;;;;;5039316;28;20095;-68
2021/05/22 09:20:11;;;;;;;5.80;3.40;;;20.00;53.60;;;;;;5035814;28;20041;-68
2021/05/22 09:22:37;;;;;;;3.70;2.88;;;20.00;52.50;;;;;;5032718;28;20049;-67
2021/05/22 09:25:06;;;;;;;5.10;2.38;;;20.00;51.60;;;;;;5026044;28;20769;-67
2021/05/22 09:27:37;;;;;;;4.35;2.35;;;19.90;51.20;;;;;;5039145;28;20041;-67
2021/05/22 09:30:15;;;;;;;3.80;1.83;;;19.80;51.50;;;;;;5040132;28;20044;-67
2021/05/22 09:32:42;;;;;;;5.55;2.28;;;19.80;50.70;;;;;;5038241;28;20029;-67
2021/05/22 09:35:09;;;;;;;6.90;2.05;;;19.80;51.80;;;;;;5042928;28;20399;-67
2021/05/22 09:38:00;;;;;;;5.50;2.30;;;19.70;50.00;;;;;;5035343;28;20497;-67
2021/05/22 09:40:27;;;;;;;3.58;2.17;;;19.70;49.00;;;;;;5028585;28;20044;-67
2021/05/22 09:42:53;;;;;;;4.93;2.22;;;19.70;50.30;;;;;;5036089;28;20093;-62
2021/05/22 09:45:23;;;;;;;5.90;2.22;;;19.80;50.70;;;;;;5042268;28;20033;-67
2021/05/22 09:47:50;;;;;;;8.57;2.58;;;20.00;51.30;;;;;;5037030;28;20041;-67
2021/05/22 09:50:33;;;;;;;6.15;2.03;;;19.90;50.60;;;;;;5037140;28;20108;-67
2021/05/22 09:53:18;;;;;;;6.00;2.17;;;20.10;49.70;;;;;;5010968;28;20235;-66
2021/05/22 09:56:04;;;;;;;7.25;2.80;;;20.10;50.70;;;;;;5032805;28;20443;-67
2021/05/22 09:58:44;;;;;;;5.53;2.60;;;20.00;50.60;;;;;;5026432;28;20037;-67
2021/05/22 10:01:12;;;;;;;3.67;2.35;;;20.20;50.70;;;;;;5030784;28;20037;-67
2021/05/22 10:03:38;;;;;;;5.93;2.53;;;20.20;49.90;;;;;;5037123;28;20072;-67
2021/05/22 10:06:04;;;;;;;5.15;2.50;;;20.30;50.10;;;;;;5038458;28;20041;-66
2021/05/22 10:08:29;;;;;;;4.45;2.88;;;20.50;48.30;;;;;;5034949;28;20136;-67
2021/05/22 10:10:57;;;;;;;9.55;2.22;;;20.50;48.20;;;;;;5036689;28;20041;-66
2021/05/22 10:13:27;;;;;;;6.15;2.47;;;20.60;49.00;;;;;;5031235;28;20110;-64
2021/05/22 10:15:59;;;;;;;6.22;2.47;;;20.40;46.70;;;;;;5034574;28;20029;-63
2021/05/22 10:18:29;;;;;;;5.30;2.17;;;20.40;48.40;;;;;;5030594;28;20037;-66
2021/05/22 10:20:58;;;;;;;7.00;3.35;;;20.30;48.90;;;;;;5033839;28;20063;-68
2021/05/22 10:23:24;;;;;;;7.75;2.95;;;20.30;48.90;;;;;;5030369;28;20131;-67
2021/05/22 10:25:55;;;;;;;8.55;2.40;;;20.20;49.10;;;;;;5053816;28;20392;-68
2021/05/22 10:28:22;;;;;;;4.20;2.60;;;20.20;49.40;;;;;;5035200;28;20052;-68
2021/05/22 10:30:48;;;;;;;5.20;2.00;;;20.10;49.10;;;;;;5036830;28;20033;-68
2021/05/22 10:33:15;;;;;;;6.45;2.30;;;20.20;49.40;;;;;;5032854;28;20033;-68
2021/05/22 10:35:49;;;;;;;4.07;1.90;;;20.20;49.40;;;;;;5033817;28;20040;-68
2021/05/22 10:38:35;;;;;;;4.35;2.03;;;20.20;48.70;;;;;;5050435;28;20075;-68
2021/05/22 10:41:05;;;;;;;4.75;2.35;;;20.30;47.90;;;;;;5017029;28;20059;-68
2021/05/22 10:43:54;;;;;;;4.00;2.67;;;20.20;49.70;;;;;;5029687;28;20052;-67
2021/05/22 10:46:21;;;;;;;4.78;2.60;;;20.30;48.60;;;;;;5015253;28;20033;-68
2021/05/22 10:48:51;;;;;;;4.95;2.85;;;20.20;48.90;;;;;;5035813;28;20067;-68
2021/05/22 10:51:32;;;;;;;12.43;4.03;;;20.20;49.50;;;;;;5053814;28;20087;-68
2021/05/22 10:54:01;;;;;;;8.00;3.05;;;20.10;48.70;;;;;;5010551;28;20517;-67
2021/05/22 10:56:28;;;;;;;5.78;2.95;;;20.00;48.00;;;;;;5042485;28;20132;-68
2021/05/22 10:59:07;;;;;;;4.55;2.60;;;20.20;48.20;;;;;;5034827;28;20084;-66
2021/05/22 11:01:36;;;;;;;5.53;2.67;;;20.30;47.80;;;;;;5042475;28;20040;-68
2021/05/22 11:04:08;;;;;;;5.82;2.22;;;20.40;47.80;;;;;;5030469;28;20057;-68
2021/05/22 11:06:50;;;;;;;4.72;2.67;;;20.60;47.50;;;;;;5038758;28;20120;-67
2021/05/22 11:09:25;;;;;;;11.55;2.67;;;20.60;46.30;;;;;;5035190;28;20037;-68
2021/05/22 11:11:54;;;;;;;4.93;2.40;;;;;;;;;;5035749;28;20033;-68
2021/05/22 11:14:43;;;;;;;5.28;2.10;;;20.70;45.80;;;;;;5037191;28;20394;-68
2021/05/22 11:17:21;;;;;;;4.90;2.65;;;20.80;45.80;;;;;;5016591;28;20046;-67
2021/05/22 11:19:59;;;;;;;6.05;2.70;;;20.80;45.60;;;;;;5037515;28;20039;-68
2021/05/22 11:22:28;;;;;;;4.00;1.90;;;20.90;47.40;;;;;;5023111;28;20060;-67
2021/05/22 11:25:03;;;;;;;3.53;1.98;;;21.00;46.90;;;;;;5034088;28;20190;-67
2021/05/22 11:30:40;;;;;;;3.15;2.22;;;21.10;47.10;;;;;;5011654;28;20049;-68
2021/05/22 11:33:10;;;;;;;4.18;2.80;;;21.10;47.00;;;;;;5057146;28;20406;-67
2021/05/22 11:35:38;;;;;;;7.22;2.90;;;21.20;46.30;;;;;;5033058;28;20428;-68
2021/05/22 11:38:22;;;;;;;3.20;2.25;;;21.30;46.00;;;;;;5040641;28;20100;-68
2021/05/22 11:40:53;;;;;;;4.53;2.42;;;21.20;45.60;;;;;;5030174;28;20453;-67
2021/05/22 11:43:18;;;;;;;6.10;2.40;;;21.20;45.60;;;;;;5041881;28;20098;-68
2021/05/22 11:46:14;;;;;;;7.93;2.88;;;21.20;46.40;;;;;;5032253;28;20045;-68
2021/05/22 11:48:44;;;;;;;6.22;2.65;;;21.20;46.00;;;;;;5018238;28;20049;-68
2021/05/22 11:51:11;;;;;;;4.57;2.63;;;21.20;45.50;;;;;;5048873;28;20043;-68
2021/05/22 11:53:39;;;;;;;5.10;2.67;;;21.30;45.40;;;;;;5037639;28;20040;-68
2021/05/22 11:56:09;;;;;;;3.65;2.65;;;21.40;45.60;;;;;;5034773;28;20029;-68
2021/05/22 11:58:37;;;;;;;7.18;3.20;;;21.30;45.30;;;;;;5040414;28;20036;-68
2021/05/22 12:01:08;;;;;;;4.50;2.40;;;21.30;45.60;;;;;;5035097;28;20119;-67
2021/05/22 12:03:36;;;;;;;4.20;2.55;;;21.30;45.90;;;;;;5044656;28;20132;-68
2021/05/22 12:06:03;;;;;;;5.00;2.70;;;21.30;45.60;;;;;;5029308;28;20037;-68
2021/05/22 12:08:29;;;;;;;4.78;2.42;;;21.30;45.70;;;;;;5037249;28;20514;-68
2021/05/22 12:10:55;;;;;;;3.58;2.83;;;21.20;44.80;;;;;;5053604;28;20924;-68
2021/05/22 12:13:23;;;;;;;5.18;2.63;;;21.10;44.30;;;;;;5038067;28;20033;-68
2021/05/22 12:15:49;;;;;;;5.22;2.45;;;21.00;44.90;;;;;;5038877;28;20048;-68
2021/05/22 12:18:16;;;;;;;6.07;2.78;;;21.00;45.10;;;;;;5026751;28;20526;-68
2021/05/22 12:20:53;;;;;;;4.55;2.63;;;20.90;45.70;;;;;;5041446;28;20144;-68
2021/05/22 12:23:25;;;;;;;5.88;2.55;;;21.00;46.30;;;;;;5046470;28;20044;-68
2021/05/22 12:25:55;;;;;;;4.40;3.00;;;21.00;46.10;;;;;;5042339;28;20054;-69
2021/05/22 12:28:22;;;;;;;5.65;2.50;;;21.10;46.10;;;;;;5036882;28;20131;-69
2021/05/22 12:30:48;;;;;;;6.60;2.35;;;21.20;45.30;;;;;;5044078;28;20090;-68
2021/05/22 12:33:18;;;;;;;3.67;1.90;;;21.30;44.00;;;;;;5031275;28;20115;-69
2021/05/22 12:35:48;;;;;;;2.97;1.60;;;21.40;43.80;;;;;;5040833;28;20037;-69
2021/05/22 12:38:45;;;;;;;3.90;2.20;;;21.50;44.20;;;;;;5031780;28;22077;-69
2021/05/22 12:41:12;;;;;;;5.25;2.58;;;21.50;44.30;;;;;;5018699;28;20120;-69
2021/05/22 12:43:51;;;;;;;4.20;2.28;;;21.50;43.80;;;;;;5031499;28;20036;-69
2021/05/22 12:46:27;;;;;;;2.47;2.28;;;21.50;42.90;;;;;;5040156;28;20073;-69
2021/05/22 12:49:17;;;;;;;5.55;2.33;;;21.50;42.90;;;;;;5051966;28;20037;-69
2021/05/22 12:51:44;;;;;;;4.85;2.55;;;21.70;42.60;;;;;;5013830;28;20042;-66
2021/05/22 12:54:31;;;;;;;4.35;2.45;;;21.70;41.70;;;;;;5031390;28;20033;-69
2021/05/22 12:57:02;;;;;;;4.13;2.42;;;21.80;42.70;;;;;;5044871;28;20040;-68
2021/05/22 12:59:29;;;;;;;4.60;2.10;;;21.60;42.70;;;;;;5026071;28;20033;-68
2021/05/22 13:02:21;;;;;;;3.95;2.97;;;21.70;42.70;;;;;;5066490;28;20490;-67
2021/05/22 13:04:53;;;;;;;6.63;2.88;;;21.70;41.20;;;;;;5027935;28;20080;-68